Airfield :
LOGIN :

Register | Disclaimer

   EN    FR    IT 

 










Legend :    VFR   Marginal VFR   IFR   Intensive IFR   Very Intensive IFR
Visi :
Ceiling :
>= 8 km
>= 3000ft
5 to 8 km
1000 to 3000 ft
1500m to 5 km
500 to 1000 ft
800 to 1500m
200 to 500 ft
< 800m
< 200 ft
Symbols :   Thunderstorms  Fog  Heavy snow  Heavy precipitations  Wind > 20 kt
SIGMETs :     Misc.  Thunderstorms  Icing  Turbulence  Mountain Waves  Volcanic Ashes







- Airport Elevation : 465 ft
- IATA code : LEJ


EDDP - Leipzig Halle

CURRENT METAR :
  • 201250Z 27014KT 9999 FEW030 11/02 Q1022 NOSIG

EXPIRED METARs :
  • 201220Z 26012KT 9999 FEW030 10/02 Q1022 NOSIG
  • 201150Z 25013KT 9999 FEW030 10/02 Q1022 NOSIG
  • 201120Z 26014KT CAVOK 10/02 Q1023 NOSIG
  • 201050Z 26013KT CAVOK 09/02 Q1023 NOSIG
  • 201020Z 25013KT CAVOK 09/02 Q1023 NOSIG

TAF TAF EDDP
Valid from the 20 at 12:00 until the 21 at 12:00 UTC


201100Z 2012/2112 25013KT CAVOK
BECMG 2015/2017 22008KT
BECMG 2107/2109 24013KT
No reported NOTAMs for that airfield.



MET'MAP, your aeronautical weather chart ! - Copyright ORBIFLY December 2007 - Disclaimer

ORBIFLY MET'MAP TEAM :

Programming & Development : Alexandra Zaïnal
Concept & Development : Baudouin d'Aumeries
Co-Development & Prog : Marc-Olivier Méhu
Technical & hardware support : Manuel Goepfert

Contact : metmap@orbifly.com




SOURCES & CREDITS :

   NOAA